Time;durP1;ratioP1;P1;durP2;ratioP2;P2;SDS_P1;SDS_P2;PMS_P1;PMS_P2;Temp;Humidity;BMP_temperature;BMP_pressure;BME280_temperature;BME280_humidity;BME280_pressure;Samples;Min_cycle;Max_cycle;Signal;HPM_P1;HPM_P2
2023/05/10 00:02:06;;;;;;;12.70;11.35;;;;;;;12.95;100.00;100815.06;5089041;28;20028;-69
2023/05/10 00:04:31;;;;;;;;;;;;;;;13.14;100.00;100828.22;5102274;27;20051;-69
2023/05/10 00:06:56;;;;;;;15.20;12.30;;;;;;;12.93;100.00;100825.91;5100153;28;20381;-69
2023/05/10 00:09:22;;;;;;;18.17;12.35;;;;;;;12.95;100.00;100823.09;5099238;28;20027;-69
2023/05/10 00:11:47;;;;;;;14.93;12.63;;;;;;;12.97;100.00;100818.41;5101936;27;20370;-69
2023/05/10 00:14:12;;;;;;;19.67;13.20;;;;;;;12.88;100.00;100822.03;5098699;28;20034;-69
2023/05/10 00:16:37;;;;;;;15.80;13.02;;;;;;;12.90;100.00;100817.38;5091396;27;20032;-70
2023/05/10 00:19:03;;;;;;;15.57;13.88;;;;;;;12.91;100.00;100817.22;5100267;28;20031;-69
2023/05/10 00:21:28;;;;;;;17.45;14.82;;;;;;;12.86;100.00;100814.16;5107520;27;20024;-69
2023/05/10 00:23:54;;;;;;;18.92;15.05;;;;;;;12.84;100.00;100825.03;5096460;28;20107;-69
2023/05/10 00:26:20;;;;;;;17.65;15.18;;;;;;;12.83;100.00;100812.66;5100898;28;20019;-69
2023/05/10 00:28:45;;;;;;;;;;;;;;;12.99;100.00;100819.94;5102990;28;20038;-69
2023/05/10 00:31:10;;;;;;;18.23;15.05;;;;;;;12.81;100.00;100811.13;5098473;28;19912;-69
2023/05/10 00:33:35;;;;;;;;;;;;;;;12.96;100.00;100814.91;5099522;27;20036;-69
2023/05/10 00:36:01;;;;;;;18.30;15.87;;;;;;;12.81;100.00;100821.81;5095211;28;19920;-69
2023/05/10 00:38:26;;;;;;;;;;;;;;;12.95;100.00;100817.72;5096040;28;20293;-70
2023/05/10 00:40:51;;;;;;;19.50;16.30;;;;;;;12.75;100.00;100823.31;5098593;28;19920;-69
2023/05/10 00:43:16;;;;;;;23.70;17.58;;;;;;;12.71;100.00;100821.94;5103877;28;20487;-69
2023/05/10 00:45:42;;;;;;;;;;;;;;;12.88;100.00;100822.88;5100200;28;20035;-69
2023/05/10 00:48:08;;;;;;;20.60;17.48;;;;;;;12.77;100.00;100821.31;5098472;28;19912;-69
2023/05/10 00:50:33;;;;;;;24.83;18.92;;;;;;;12.78;100.00;100819.44;5097290;28;20031;-69
2023/05/10 00:52:59;;;;;;;;;;;;;;;12.90;100.00;100818.19;5096534;28;20028;-69
2023/05/10 00:55:25;;;;;;;27.05;20.25;;;;;;;12.80;100.00;100821.00;5097868;28;19912;-69
2023/05/10 00:57:50;;;;;;;;;;;;;;;12.92;100.00;100820.72;5105057;28;20023;-69
2023/05/10 01:00:18;;;;;;;27.80;22.57;;;;;;;12.83;100.00;100814.47;5106036;27;20367;-70
2023/05/10 01:02:44;;;;;;;33.92;24.42;;;;;;;12.83;100.00;100812.66;5100037;27;20062;-69
2023/05/10 01:05:09;;;;;;;32.83;25.70;;;;;;;12.83;100.00;100809.97;5103219;28;20062;-69
2023/05/10 01:07:35;;;;;;;;;;;;;;;12.93;100.00;100811.69;5106557;28;21210;-69
2023/05/10 01:10:00;;;;;;;38.13;28.20;;;;;;;12.85;100.00;100816.00;5103124;28;19926;-69
2023/05/10 01:12:26;;;;;;;40.88;29.02;;;;;;;12.83;100.00;100809.13;5102166;27;20039;-69
2023/05/10 01:14:51;;;;;;;;;;;;;;;12.96;100.00;100809.53;5098005;27;20497;-69
2023/05/10 01:17:17;;;;;;;42.92;30.42;;;;;;;12.85;100.00;100810.66;5101288;27;20300;-69
2023/05/10 01:19:42;;;;;;;;;;;;;;;12.97;100.00;100808.56;5098302;27;20024;-69
2023/05/10 01:22:32;;;;;;;49.40;33.13;;;;;;;12.93;100.00;100814.38;5102129;27;19912;-69
2023/05/10 01:25:21;;;;;;;52.15;34.63;;;;;;;12.94;100.00;100814.22;5104071;28;20028;-69
2023/05/10 01:27:58;;;;;;;51.03;35.47;;;;;;;12.93;100.00;100811.69;5102059;27;20043;-69
2023/05/10 01:31:01;;;;;;;51.58;35.67;;;;;;;12.96;100.00;100809.53;5103585;27;20035;-69
2023/05/10 01:33:35;;;;;;;53.08;35.00;;;;;;;12.93;100.00;100809.84;5096051;28;20030;-69
2023/05/10 01:36:34;;;;;;;52.97;36.97;;;;;;;12.97;100.00;100807.69;5097996;28;20024;-69
2023/05/10 01:39:15;;;;;;;49.45;35.67;;;;;;;12.97;100.00;100813.03;5098199;27;20050;-69
2023/05/10 01:41:51;;;;;;;52.00;34.35;;;;;;;12.97;100.00;100815.72;5100998;28;20038;-69
2023/05/10 01:44:39;;;;;;;53.05;35.13;;;;;;;13.00;100.00;100816.25;5102354;28;20020;-69
2023/05/10 01:47:19;;;;;;;49.80;35.65;;;;;;;12.95;100.00;100810.53;5104753;28;20036;-69
2023/05/10 01:49:50;;;;;;;53.53;36.90;;;;;;;12.97;100.00;100818.41;5104068;27;20115;-69
2023/05/10 01:52:19;;;;;;;51.70;36.67;;;;;;;12.95;100.00;100812.38;5101372;27;20573;-69
2023/05/10 01:54:53;;;;;;;58.50;38.90;;;;;;;12.95;100.00;100815.06;5100328;28;20024;-69
2023/05/10 01:57:22;;;;;;;54.45;38.10;;;;;;;12.95;100.00;100815.88;5099061;27;20085;-69
2023/05/10 01:59:50;;;;;;;53.78;37.10;;;;;;;12.97;100.00;100816.59;5103655;28;20101;-69
2023/05/10 02:02:18;;;;;;;50.45;37.60;;;;;;;12.97;100.00;100816.59;5101689;28;20023;-69
2023/05/10 02:04:46;;;;;;;55.40;39.30;;;;;;;12.95;100.00;100823.09;5101639;27;20044;-69
2023/05/10 02:07:12;;;;;;;57.20;40.55;;;;;;;12.99;100.00;100822.63;5104620;28;20024;-69
2023/05/10 02:09:38;;;;;;;57.55;40.67;;;;;;;12.95;100.00;100826.59;5103169;27;21583;-70
2023/05/10 02:12:05;;;;;;;;;;;;;;;13.10;100.00;100834.06;5097741;27;20482;-69
2023/05/10 02:14:33;;;;;;;58.55;41.15;;;;;;;12.99;100.00;100827.97;5094826;28;20410;-69
2023/05/10 02:17:01;;;;;;;60.85;42.33;;;;;;;12.96;100.00;100832.81;5098359;27;20028;-69
2023/05/10 02:19:28;;;;;;;62.80;43.85;;;;;;;12.96;100.00;100835.47;5098962;28;20020;-69
2023/05/10 02:21:55;;;;;;;64.72;44.05;;;;;;;12.97;100.00;100838.00;5101058;27;20059;-68
2023/05/10 02:24:23;;;;;;;68.35;46.35;;;;;;;12.98;100.00;100834.31;5099637;28;20019;-68
2023/05/10 02:26:51;;;;;;;71.40;47.90;;;;;;;12.95;100.00;100842.66;5107071;27;20037;-68
2023/05/10 02:29:17;;;;;;;70.80;47.47;;;;;;;12.97;100.00;100840.69;5097943;28;20023;-68
2023/05/10 02:31:43;;;;;;;67.78;48.40;;;;;;;12.93;100.00;100843.81;5100098;28;20032;-69
2023/05/10 02:34:10;;;;;;;72.47;50.13;;;;;;;12.88;100.00;100836.25;5097441;27;20023;-69
2023/05/10 02:36:37;;;;;;;70.82;50.28;;;;;;;12.95;100.00;100836.47;5101508;28;20043;-69
2023/05/10 02:39:04;;;;;;;70.05;49.65;;;;;;;12.94;100.00;100845.47;5106144;27;20059;-69
2023/05/10 02:41:32;;;;;;;71.03;49.75;;;;;;;12.96;100.00;100844.34;5102915;27;20034;-69
2023/05/10 02:44:00;;;;;;;63.72;47.13;;;;;;;12.95;100.00;100847.19;5106779;28;20092;-69
2023/05/10 02:46:26;;;;;;;64.38;45.78;;;;;;;12.91;100.00;100845.81;5093317;28;20091;-69
2023/05/10 02:48:51;;;;;;;;;;;;;;;13.05;100.00;100848.75;5106013;28;20532;-69
2023/05/10 02:51:19;;;;;;;61.70;44.75;;;;;;;12.89;100.00;100839.78;5100763;28;19923;-69
2023/05/10 02:53:48;;;;;;;59.45;44.50;;;;;;;12.88;100.00;100840.78;5099648;27;20028;-69
2023/05/10 02:56:19;;;;;;;58.80;43.45;;;;;;;12.83;100.00;100842.09;5101170;27;20067;-69
2023/05/10 02:58:45;;;;;;;57.25;43.45;;;;;;;12.81;100.00;100838.72;5097140;27;20561;-69
2023/05/10 03:01:10;;;;;;;;;;;;;;;12.97;100.00;100853.22;5092888;28;20127;-69
2023/05/10 03:03:36;;;;;;;56.80;41.33;;;;;;;12.84;100.00;100845.59;5091996;27;19916;-69
2023/05/10 03:06:01;;;;;;;;;;;;;;;12.96;100.00;100848.88;5099267;27;20320;-69
2023/05/10 03:08:29;;;;;;;58.00;42.63;;;;;;;12.82;100.00;100845.75;5099605;27;19919;-69
2023/05/10 03:11:16;;;;;;;59.45;42.25;;;;;;;12.85;100.00;100842.78;5101505;27;20326;-69
2023/05/10 03:13:54;;;;;;;56.63;41.83;;;;;;;12.83;100.00;100843.91;5104424;27;20296;-69
2023/05/10 03:16:26;;;;;;;59.53;39.85;;;;;;;12.83;100.00;100847.44;5103718;28;20031;-68
2023/05/10 03:18:59;;;;;;;55.38;40.08;;;;;;;12.82;100.00;100850.28;5089306;28;20400;-69
2023/05/10 03:21:29;;;;;;;48.13;36.13;;;;;;;12.82;100.00;100850.28;5094925;28;20023;-69
2023/05/10 03:24:03;;;;;;;47.50;36.50;;;;;;;12.81;100.00;100852.09;5099910;28;20508;-69
2023/05/10 03:26:29;;;;;;;49.45;36.03;;;;;;;12.80;100.00;100849.59;5104848;28;20020;-69
2023/05/10 03:28:58;;;;;;;50.08;36.20;;;;;;;12.82;100.00;100855.63;5103406;27;20024;-69
2023/05/10 03:31:24;;;;;;;46.33;34.25;;;;;;;12.80;100.00;100863.00;5105241;28;20102;-69
2023/05/10 03:33:50;;;;;;;;;;;;;;;12.93;100.00;100858.03;5106711;28;20606;-69
2023/05/10 03:36:15;;;;;;;47.72;34.08;;;;;;;12.84;100.00;100867.03;5104525;27;19944;-68
2023/05/10 03:38:41;;;;;;;;;;;;;;;12.92;100.00;100861.72;5102357;27;20031;-69
2023/05/10 03:41:06;;;;;;;45.90;33.47;;;;;;;12.84;100.00;100861.66;5100673;27;19912;-69
2023/05/10 03:43:31;;;;;;;43.40;32.95;;;;;;;12.85;100.00;100863.38;5100884;27;20114;-69
2023/05/10 03:45:56;;;;;;;;;;;;;;;12.95;100.00;100872.09;5105285;27;20016;-69
2023/05/10 03:48:22;;;;;;;48.57;33.93;;;;;;;12.84;100.00;100872.38;5099906;27;19915;-69
2023/05/10 03:50:49;;;;;;;;;;;;;;;12.96;100.00;100870.28;5105249;28;20277;-69
2023/05/10 03:53:14;;;;;;;50.55;34.15;;;;;;;12.83;100.00;100868.00;5105685;27;19923;-68
2023/05/10 03:55:39;;;;;;;;;;;;;;;12.96;100.00;100875.66;5102458;28;20081;-69
2023/05/10 03:58:05;;;;;;;47.63;32.80;;;;;;;12.85;100.00;100871.38;5101851;28;19922;-69
2023/05/10 04:00:30;;;;;;;49.85;35.85;;;;;;;12.80;100.00;100874.53;5102789;28;20672;-68
2023/05/10 04:02:56;;;;;;;;;;;;;;;12.95;100.00;100873.94;5102551;27;20047;-68
2023/05/10 04:05:21;;;;;;;49.17;33.63;;;;;;;12.83;100.00;100876.91;5100234;28;20300;-68
2023/05/10 04:07:46;;;;;;;;;;;;;;;12.95;100.00;100888.16;5100159;28;20647;-68
2023/05/10 04:10:12;;;;;;;74.15;45.40;;;;;;;12.83;100.00;100882.25;5103874;27;20010;-68
2023/05/10 04:12:37;;;;;;;;;;;;;;;12.93;100.00;100886.66;5100543;28;20031;-68
2023/05/10 04:15:03;;;;;;;78.50;46.77;;;;;;;12.79;100.00;100891.56;5099929;27;19915;-68
2023/05/10 04:17:28;;;;;;;80.10;49.25;;;;;;;12.78;100.00;100892.59;5101870;28;20410;-68
2023/05/10 04:19:54;;;;;;;;;;;;;;;12.92;100.00;100890.31;5102483;28;20494;-68
2023/05/10 04:22:20;;;;;;;88.47;51.83;;;;;;;12.78;100.00;100889.03;5100639;27;19966;-68
2023/05/10 04:24:45;;;;;;;;;;;;;;;12.88;100.00;100886.28;5099100;28;20054;-68
2023/05/10 04:27:11;;;;;;;79.25;49.25;;;;;;;12.76;100.00;100888.38;5105154;27;19954;-68
2023/05/10 04:29:36;;;;;;;83.32;50.15;;;;;;;12.69;100.00;100896.16;5097640;28;20747;-68
2023/05/10 04:32:01;;;;;;;;;;;;;;;12.81;100.00;100892.25;5102605;28;20024;-68
2023/05/10 04:34:27;;;;;;;77.15;47.78;;;;;;;12.65;100.00;100894.81;5101348;27;20006;-69
2023/05/10 04:36:52;;;;;;;70.78;43.83;;;;;;;12.68;100.00;100894.50;5103116;28;20039;-68
2023/05/10 04:39:17;;;;;;;;;;;;;;;12.78;100.00;100894.41;5102252;28;20020;-68
2023/05/10 04:41:43;;;;;;;54.25;36.00;;;;;;;12.61;100.00;100886.25;5101746;28;19992;-68
2023/05/10 04:44:08;;;;;;;;;;;;;;;12.75;100.00;100898.25;5101533;28;20023;-68
2023/05/10 04:46:33;;;;;;;49.57;32.57;;;;;;;12.62;100.00;100892.44;5100839;28;19920;-68
2023/05/10 04:48:58;;;;;;;;;;;;;;;12.73;100.00;100894.03;5101207;28;20293;-68
2023/05/10 04:51:24;;;;;;;45.60;30.77;;;;;;;12.53;100.00;100893.38;5089046;28;19962;-69
2023/05/10 04:53:49;;;;;;;39.05;28.77;;;;;;;12.58;100.00;100888.41;5105106;28;20035;-69
2023/05/10 04:56:14;;;;;;;;;;;;;;;12.71;100.00;100899.56;5101738;28;20568;-68
2023/05/10 04:58:40;;;;;;;41.65;29.00;;;;;;;12.56;100.00;100891.22;5098002;28;19912;-69
2023/05/10 05:01:10;;;;;;;37.25;27.20;;;;;;;12.56;100.00;100899.25;5105474;28;20031;-69
2023/05/10 05:03:35;;;;;;;40.17;27.42;;;;;;;12.55;100.00;100891.38;5101463;28;20040;-68
2023/05/10 05:06:01;;;;;;;;;;;;;;;12.73;100.00;100899.38;5102108;28;20027;-68
2023/05/10 05:08:26;;;;;;;35.53;26.83;;;;;;;12.62;100.00;100898.66;5098401;28;19919;-68
2023/05/10 05:10:52;;;;;;;;;;;;;;;12.77;100.00;100906.94;5103617;28;20484;-68
2023/05/10 05:13:17;;;;;;;40.28;28.95;;;;;;;12.69;100.00;100901.53;5102496;28;19994;-68
2023/05/10 05:15:42;;;;;;;;;;;;;;;12.82;100.00;100904.66;5100813;28;20036;-68
2023/05/10 05:18:07;;;;;;;35.40;26.57;;;;;;;12.70;100.00;100911.25;5102446;28;19911;-69
2023/05/10 05:20:34;;;;;;;38.00;27.88;;;;;;;12.75;100.00;100900.91;5101703;28;20321;-68
2023/05/10 05:22:59;;;;;;;37.88;28.08;;;;;;;12.72;100.00;100913.78;5101402;28;20346;-69
2023/05/10 05:25:24;;;;;;;;;;;;;;;12.89;100.00;100918.25;5099380;28;20042;-69
2023/05/10 05:27:50;;;;;;;34.27;26.73;;;;;;;12.70;100.00;100911.25;5106362;28;19912;-69
2023/05/10 05:30:15;;;;;;;;;;;;;;;12.88;100.00;100919.25;5101575;28;20293;-68
2023/05/10 05:32:40;;;;;;;36.08;26.70;;;;;;;12.67;100.00;100917.75;5101914;28;19947;-68
2023/05/10 05:35:06;;;;;;;;;;;;;;;12.88;100.00;100919.25;5101845;28;20386;-69
2023/05/10 05:37:31;;;;;;;35.20;26.75;;;;;;;12.76;100.00;100920.47;5098659;28;19923;-68
2023/05/10 05:39:56;;;;;;;;;;;;;;;12.92;100.00;100925.97;5101228;28;20020;-69
2023/05/10 05:42:22;;;;;;;41.30;29.02;;;;;;;12.80;100.00;100929.91;5105635;27;19912;-69
2023/05/10 05:44:47;;;;;;;;;;;;;;;12.96;100.00;100921.16;5101187;27;20522;-68
2023/05/10 05:47:12;;;;;;;37.28;26.90;;;;;;;12.87;100.00;100922.94;5104347;28;19915;-68
2023/05/10 05:49:38;;;;;;;38.17;28.45;;;;;;;12.90;100.00;100925.28;5106365;28;20438;-69
2023/05/10 05:52:03;;;;;;;;;;;;;;;13.07;100.00;100930.78;5104702;28;20029;-69
2023/05/10 05:54:30;;;;;;;41.78;27.10;;;;;;;12.97;100.00;100926.34;5096163;28;20003;-68
2023/05/10 05:57:00;;;;;;;35.97;25.52;;;;;;;13.04;100.00;100938.13;5099563;28;20397;-68
2023/05/10 05:59:25;;;;;;;34.20;26.85;;;;;;;13.01;100.00;100934.91;5100178;28;20031;-68
2023/05/10 06:01:50;;;;;;;;;;;;;;;13.27;100.00;100942.09;5102600;28;20024;-68
2023/05/10 06:04:16;;;;;;;34.53;25.58;;;;;;;13.14;100.00;100940.69;5100027;28;20333;-69
2023/05/10 06:06:42;;;;;;;33.13;25.52;;;;;;;13.14;100.00;100942.53;5095387;28;20034;-69
2023/05/10 06:09:07;;;;;;;;;;;;;;;13.34;100.00;100949.41;5094075;27;20028;-68
2023/05/10 06:11:33;;;;;;;31.27;25.77;;;;;;;13.21;100.00;100951.63;5102517;27;19914;-69
2023/05/10 06:13:59;;;;;;;;;;;;;;;13.38;100.00;100949.94;5101672;28;20046;-68
2023/05/10 06:16:24;;;;;;;33.75;25.83;;;;;;;13.23;100.00;100954.97;5105394;27;20382;-69
2023/05/10 06:18:49;;;;;;;;;;;;;;;13.44;100.00;100941.25;5106477;28;20484;-68
2023/05/10 06:21:15;;;;;;;33.77;25.83;;;;;;;13.38;100.00;100956.13;5097202;28;20396;-68
2023/05/10 06:23:41;;;;;;;33.85;25.90;;;;;;;13.38;100.00;100956.13;5103104;27;20035;-68
2023/05/10 06:26:06;;;;;;;;;;;;;;;13.63;100.00;100960.78;5095303;28;20034;-69
2023/05/10 06:28:33;;;;;;;33.03;26.67;;;;;;;13.55;100.00;100957.06;5097054;28;19919;-69
2023/05/10 06:30:58;;;;;;;32.92;27.00;;;;;;;13.47;100.00;100958.84;5096802;28;20055;-68
2023/05/10 06:33:23;;;;;;;;;;;;;;;13.73;100.00;100964.19;5101768;28;20496;-69
2023/05/10 06:35:49;;;;;;;30.70;25.60;;;;;;;13.60;100.00;100964.59;5098171;28;19911;-68
2023/05/10 06:38:15;;;;;;;32.30;26.38;;;;;;;13.58;100.00;100967.44;5105674;28;20024;-69
2023/05/10 06:40:43;;;;;;;35.55;27.33;;;;;;;13.68;100.00;100961.97;5093925;28;20031;-69
2023/05/10 06:43:10;;;;;;;31.77;26.35;;;;;;;13.69;100.00;100976.22;5099526;28;20114;-68
2023/05/10 06:45:35;;;;;;;35.78;27.33;;;;;;;13.66;100.00;100971.19;5097046;28;20066;-69
2023/05/10 06:48:01;;;;;;;;;;;;;;;13.91;100.00;100970.28;5096861;28;20067;-68
2023/05/10 06:50:26;;;;;;;29.10;24.90;;;;;;;13.83;100.00;100972.09;5102315;28;19920;-69
2023/05/10 06:52:51;;;;;;;;;;;;;;;14.03;100.00;100973.53;5105012;27;20020;-68
2023/05/10 06:55:17;;;;;;;32.97;26.27;;;;;;;13.93;100.00;100978.19;5101123;28;19918;-69
2023/05/10 06:57:42;;;;;;;;;;;;;;;14.11;100.00;100978.94;5092201;28;20298;-69
2023/05/10 07:00:09;;;;;;;32.57;25.20;;;;;;;13.89;100.00;100976.81;5091839;28;19995;-68
2023/05/10 07:02:34;;;;;;;32.38;25.20;;;;;;;13.90;100.00;100981.16;5095851;28;20296;-68
2023/05/10 07:05:00;;;;;;;;;;;;;;;14.05;100.00;100981.41;5100705;28;20032;-68
2023/05/10 07:07:25;;;;;;;30.88;24.55;;;;;;;13.78;100.00;100984.16;5094922;27;20476;-69
2023/05/10 07:09:51;;;;;;;;;;;;;;;14.02;100.00;100987.94;5096171;28;20035;-68
2023/05/10 07:12:16;;;;;;;32.28;23.83;;;;;;;13.84;100.00;100990.72;5101196;28;19920;-69
2023/05/10 07:14:42;;;;;;;;;;;;;;;14.04;100.00;101002.00;5104606;28;20080;-68
2023/05/10 07:17:07;;;;;;;32.50;22.98;;;;;;;13.75;100.00;101000.53;5092159;28;19919;-69
2023/05/10 07:19:32;;;;;;;;;;;;;;;14.00;100.00;100998.81;5094067;28;20434;-68
2023/05/10 07:21:58;;;;;;;25.38;20.20;;;;;;;13.74;100.00;101000.69;5097289;28;19922;-68
2023/05/10 07:24:24;;;;;;;24.55;19.80;;;;;;;13.72;100.00;101003.53;5098764;27;20561;-69
2023/05/10 07:26:49;;;;;;;24.67;18.98;;;;;;;13.72;100.00;101006.22;5096171;28;20020;-69
2023/05/10 07:29:14;;;;;;;;;;;;;;;13.96;100.00;101012.72;5097826;28;20024;-69
2023/05/10 07:31:41;;;;;;;20.73;17.37;;;;;;;13.75;100.00;101011.25;5101722;28;20459;-67
2023/05/10 07:34:07;;;;;;;22.73;18.52;;;;;;;13.69;100.00;101019.09;5095458;27;20285;-69
2023/05/10 07:36:32;;;;;;;;;;;;;;;13.94;100.00;101015.56;5104419;28;20092;-69
2023/05/10 07:38:57;;;;;;;20.23;16.50;;;;;;;13.75;100.00;101021.16;5095450;28;19968;-69
2023/05/10 07:41:23;;;;;;;20.70;16.13;;;;;;;13.69;100.00;101019.97;5098343;28;20029;-71
2023/05/10 07:43:48;;;;;;;;;;;;;;;13.95;100.00;101016.38;5098263;28;20027;-68
2023/05/10 07:46:13;;;;;;;17.80;13.00;;;;;;;13.81;100.00;101020.50;5098347;28;19919;-68
2023/05/10 07:48:39;;;;;;;;;;;;;;;14.00;100.00;101022.94;5092053;27;20285;-68
2023/05/10 07:51:04;;;;;;;15.23;12.07;;;;;;;13.76;100.00;101020.13;5111163;27;19926;-69
2023/05/10 07:53:29;;;;;;;16.67;11.68;;;;;;;13.83;100.00;101025.72;5103466;28;20061;-69
2023/05/10 07:55:58;;;;;;;14.00;10.82;;;;;;;13.87;100.00;101025.25;5097088;27;20032;-69
2023/05/10 07:58:23;;;;;;;13.52;10.90;;;;;;;13.84;100.00;101038.13;5101972;28;20024;-68
2023/05/10 08:00:49;;;;;;;;;;;;;;;14.05;100.00;101029.69;5098075;28;20030;-69
2023/05/10 08:03:14;;;;;;;15.82;10.57;;;;;;;13.92;100.00;101046.19;5093983;28;19912;-69
2023/05/10 08:05:40;;;;;;;;;;;;;;;14.07;100.00;101043.78;5096464;28;20031;-69
2023/05/10 08:08:05;;;;;;;14.43;9.82;;;;;;;13.82;100.00;101046.34;5088582;28;19920;-69
2023/05/10 08:10:31;;;;;;;;;;;;;;;14.08;100.00;101040.09;5098547;27;20038;-69
2023/05/10 08:12:58;;;;;;;12.30;8.68;;;;;;;13.92;100.00;101043.53;5100368;28;20290;-69
2023/05/10 08:15:23;;;;;;;12.20;8.40;;;;;;;13.91;100.00;101049.91;5104714;28;20027;-69
2023/05/10 08:17:48;;;;;;;;;;;;;;;14.13;100.00;101049.34;5097690;28;20031;-68
2023/05/10 08:20:16;;;;;;;11.10;8.80;;;;;;;14.04;100.00;101049.44;5091984;28;20002;-69
2023/05/10 08:22:41;;;;;;;13.52;8.57;;;;;;;14.02;100.00;101060.34;5093493;28;20285;-68
2023/05/10 08:25:07;;;;;;;;;;;;;;;14.33;100.00;101063.34;5098427;28;20091;-68
2023/05/10 08:27:32;;;;;;;10.77;8.43;;;;;;;14.25;100.00;101068.66;5097876;28;19912;-69
2023/05/10 08:29:57;;;;;;;10.95;8.15;;;;;;;14.25;100.00;101070.50;5099233;28;20660;-69
2023/05/10 08:32:23;;;;;;;;;;;;;;;14.53;100.00;101066.59;5097798;28;20549;-69
2023/05/10 08:34:48;;;;;;;10.07;6.83;;;;;;;14.41;100.00;101061.69;5088537;28;19923;-68
2023/05/10 08:37:13;;;;;;;;;;;;;;;14.74;100.00;101068.03;5095260;28;20297;-69
2023/05/10 08:39:38;;;;;;;10.77;6.68;;;;;;;14.67;100.00;101062.50;5096696;28;19929;-69
2023/05/10 08:42:05;;;;;;;9.82;7.15;;;;;;;14.71;100.00;101063.84;5096571;28;20126;-69
2023/05/10 08:44:36;;;;;;;10.02;6.60;;;;;;;14.83;100.00;101067.06;5098537;28;20400;-68
2023/05/10 08:47:08;;;;;;;10.38;6.45;;;;;;;15.15;100.00;101068.09;5100341;28;20035;-69
2023/05/10 08:49:34;;;;;;;7.53;6.70;;;;;;;15.53;100.00;101073.78;5095626;28;20492;-69
2023/05/10 08:52:03;;;;;;;7.97;6.72;;;;;;;15.85;100.00;101072.94;5098585;28;20221;-69
2023/05/10 08:54:31;;;;;;;8.10;6.50;;;;;;;16.05;100.00;101080.63;5098125;28;20019;-69
2023/05/10 08:56:56;;;;;;;10.88;6.22;;;;;;;16.28;100.00;101071.81;5089664;28;20073;-69
2023/05/10 08:59:22;;;;;;;9.85;5.43;;;;;;;16.62;100.00;101069.63;5099263;28;20023;-68
2023/05/10 09:01:49;;;;;;;7.93;6.10;;;;;;;16.70;100.00;101066.03;5094844;28;20026;-68
2023/05/10 09:04:14;;;;;;;6.43;5.07;;;;;;;16.81;100.00;101075.56;5100867;28;20085;-69
2023/05/10 09:06:40;;;;;;;5.72;5.15;;;;;;;16.68;100.00;101068.06;5096593;28;20011;-68
2023/05/10 09:09:06;;;;;;;5.55;4.60;;;;;;;16.82;100.00;101070.00;5090384;28;20043;-69
2023/05/10 09:11:32;;;;;;;5.10;4.28;;;;;;;16.75;100.00;101071.75;5097910;28;20126;-69
2023/05/10 09:13:57;;;;;;;6.03;4.10;;;;;;;16.80;100.00;101076.59;5104104;28;21811;-67
2023/05/10 09:16:23;;;;;;;5.28;3.97;;;;;;;16.93;100.00;101067.97;5093595;28;20377;-70
2023/05/10 09:18:49;;;;;;;6.97;4.13;;;;;;;16.98;100.00;101069.09;5096284;28;20412;-70
2023/05/10 09:21:15;;;;;;;5.85;3.70;;;;;;;17.76;100.00;101074.34;5097145;28;20034;-70
2023/05/10 09:23:43;;;;;;;5.65;4.25;;;;;;;18.22;100.00;101076.91;5100827;27;20397;-70
2023/05/10 09:26:08;;;;;;;6.55;3.72;;;;;;;18.23;100.00;101089.41;5104155;27;20500;-70
2023/05/10 09:28:49;;;;;;;5.80;4.25;;;;;;;18.33;100.00;101083.69;5100541;27;20146;-70
2023/05/10 09:31:14;;;;;;;5.25;4.28;;;;;;;17.93;100.00;101075.91;5099621;28;20102;-70
2023/05/10 09:33:47;;;;;;;7.28;4.72;;;;;;;17.97;100.00;101083.59;5102780;28;20027;-70
2023/05/10 09:36:13;;;;;;;5.53;4.97;;;;;;;17.91;100.00;101082.47;5105634;28;20147;-70
2023/05/10 09:38:50;;;;;;;5.57;4.50;;;;;;;18.40;100.00;101081.06;5099937;28;20450;-69
2023/05/10 09:41:20;;;;;;;4.70;3.78;;;;;;;18.46;100.00;101083.88;5097210;28;20486;-70
2023/05/10 09:43:46;;;;;;;5.53;4.85;;;;;;;18.07;100.00;101092.25;5097075;28;20020;-70
2023/05/10 09:46:11;;;;;;;7.90;4.65;;;;;;;17.90;100.00;101087.06;5099384;28;20043;-70
2023/05/10 09:48:43;;;;;;;6.40;4.43;;;;;;;17.96;100.00;101093.56;5093801;28;20031;-70
2023/05/10 09:51:08;;;;;;;6.20;5.13;;;;;;;17.63;100.00;101084.94;5096350;28;20059;-70
2023/05/10 09:53:33;;;;;;;6.40;5.25;;;;;;;17.39;100.00;101098.44;5095427;27;20032;-70
2023/05/10 09:55:59;;;;;;;5.82;5.10;;;;;;;17.24;100.00;101094.84;5100631;28;20060;-70
2023/05/10 09:58:24;;;;;;;6.72;5.18;;;;;;;17.06;100.00;101097.84;5099451;27;20032;-70
2023/05/10 10:00:52;;;;;;;5.15;4.40;;;;;;;16.96;100.00;101102.63;5102596;27;20122;-70
2023/05/10 10:03:22;;;;;;;5.80;5.05;;;;;;;16.75;100.00;101097.84;5101603;28;20035;-70
2023/05/10 10:05:48;;;;;;;5.03;4.40;;;;;;;16.79;100.00;101099.16;5096762;27;20393;-70
2023/05/10 10:08:15;;;;;;;4.65;3.38;;;;;;;16.66;100.00;101099.75;5089628;27;20081;-70
2023/05/10 10:10:41;;;;;;;4.35;2.85;;;;;;;16.76;100.00;101094.13;5093594;28;20024;-69
2023/05/10 10:13:07;;;;;;;5.15;2.67;;;;;;;16.81;100.00;101091.72;5098845;28;20369;-70
2023/05/10 10:15:34;;;;;;;5.00;2.80;;;;;;;16.77;100.00;101098.50;5097700;28;20040;-70
2023/05/10 10:17:59;;;;;;;4.50;3.17;;;;;;;16.76;100.00;101102.19;5094914;28;20107;-70
2023/05/10 10:20:26;;;;;;;4.35;3.70;;;;;;;16.64;100.00;101101.78;5097010;28;20464;-70
2023/05/10 10:22:51;;;;;;;6.13;4.00;;;;;;;16.70;100.00;101097.53;5106399;28;20083;-70
2023/05/10 10:25:18;;;;;;;5.45;3.85;;;;;;;16.81;100.00;101102.50;5092411;28;20384;-70
2023/05/10 10:27:52;;;;;;;6.60;5.10;;;;;;;16.95;100.00;101096.41;5090547;28;20035;-70
2023/05/10 10:30:37;;;;;;;5.00;3.83;;;;;;;17.37;100.00;101107.72;5092266;28;20036;-70
2023/05/10 10:33:36;;;;;;;5.53;4.80;;;;;;;17.63;100.00;101095.72;5106105;28;20497;-70
2023/05/10 10:36:03;;;;;;;5.40;4.90;;;;;;;17.87;100.00;101098.22;5094911;28;20104;-70
2023/05/10 10:38:47;;;;;;;5.40;4.72;;;;;;;18.10;100.00;101100.81;5103272;27;20398;-70
2023/05/10 10:41:35;;;;;;;5.68;4.90;;;;;;;18.33;100.00;101094.50;5092272;28;20702;-70
2023/05/10 10:44:22;;;;;;;6.35;4.70;;;;;;;18.30;100.00;101100.25;5093191;28;20023;-70
2023/05/10 10:47:14;;;;;;;5.15;4.43;;;;;;;18.22;100.00;101098.50;5096839;28;20032;-70
2023/05/10 10:49:51;;;;;;;4.90;4.22;;;;;;;17.89;100.00;101100.72;5090987;28;20023;-70
2023/05/10 10:52:23;;;;;;;5.82;4.43;;;;;;;17.72;100.00;101100.88;5103721;27;20389;-70
2023/05/10 10:54:57;;;;;;;4.53;4.07;;;;;;;17.54;100.00;101100.34;5092732;28;20024;-70
2023/05/10 10:57:22;;;;;;;5.20;4.35;;;;;;;17.38;100.00;101102.16;5097654;28;20031;-70
2023/05/10 10:59:48;;;;;;;5.25;4.28;;;;;;;17.25;100.00;101098.38;5106163;28;20356;-70
2023/05/10 11:02:34;;;;;;;5.03;4.38;;;;;;;17.52;100.00;101103.22;5091561;28;20023;-70
2023/05/10 11:05:00;;;;;;;5.28;4.70;;;;;;;17.68;100.00;101093.31;5099270;28;20897;-70
2023/05/10 11:07:26;;;;;;;5.25;4.75;;;;;;;18.08;100.00;101102.03;5101845;27;20499;-70
2023/05/10 11:09:51;;;;;;;6.60;5.10;;;;;;;18.57;100.00;101103.31;5095479;28;20042;-70
2023/05/10 11:12:16;;;;;;;10.52;9.48;;;;;;;18.75;100.00;101100.22;5090653;28;20047;-70
2023/05/10 11:14:42;;;;;;;14.60;10.88;;;;;;;18.75;100.00;101101.03;5097017;28;20100;-70
2023/05/10 11:17:27;;;;;;;12.80;10.32;;;;;;;18.93;100.00;101108.75;5092750;28;20035;-70
2023/05/10 11:20:09;;;;;;;11.32;10.23;;;;;;;18.67;100.00;101099.28;5093947;27;20024;-70
2023/05/10 11:22:53;;;;;;;10.57;9.48;;;;;;;18.58;100.00;101103.09;5097439;28;20553;-70
2023/05/10 11:25:20;;;;;;;11.93;10.73;;;;;;;18.46;100.00;101107.31;5090276;28;20039;-70